Currently 69°F in Riverside (Orangecrest), California, USA
69°F
71°F / 68°F
calm
0.00"
Sunday, August 25, 2019 6:49 AM PDT

Riverside (Orangecrest), California Weather Summary
Last 36 Hours

Temperature Winds Hourly Humidity Dewpoint
Time Report Norm Report Norm Max Gusts Precip. Rpt. Norm Rpt. Norm Pressure
1Sun 06:49 AM  69.5°F  66°F  calm  2 mph  3 mph  0.00"  65%  73%  57°F  57°F  30.00"
Sun 06:00 AM  69.6°F  66°F  calm  2 mph  none  0.00"  67%  72%  58°F  57°F  29.98"
Sun 05:00 AM  68.4°F  67°F  calm  1 mph  none  0.00"  70%  71%  58°F  57°F  29.98"
3Sun 04:30 AM  68.0°F  67°F  calm  1 mph  none  ----  71%  70%  58°F  57°F  29.98"
Sun 04:00 AM  68.2°F  67°F  calm  1 mph  5 mph  0.00"  70%  70%  58°F  57°F  29.98"
Sun 03:00 AM  68.3°F  68°F  3 mph W  2 mph  8 mph  0.00"  70%  69%  58°F  57°F  29.98"
Sun 02:00 AM  68.4°F  68°F  5 mph NW  2 mph  8 mph  0.00"  70%  68%  58°F  57°F  29.97"
Sun 01:00 AM  69.3°F  69°F  3 mph NW  2 mph  9 mph  0.00"  69%  65%  58°F  56°F  29.98"
2Sun 12:00 AM  71.3°F  70°F  4 mph NW  3 mph  9 mph  0.00"  61%  63%  57°F  56°F  29.98"
Sat 11:00 PM  73.3°F  71°F  3 mph NW  3 mph  8 mph  0.00"  56%  60%  56°F  56°F  29.98"
Sat 10:00 PM  75.6°F  72°F  calm  3 mph  5 mph  0.00"  48%  56%  54°F  55°F  29.98"
Sat 09:00 PM  78.2°F  74°F  2 mph W  4 mph  8 mph  0.00"  38%  51%  49°F  54°F  29.96"
Sat 08:00 PM  81.2°F  76°F  2 mph NW  5 mph  14 mph  0.00"  25%  45%  41°F  53°F  29.93"
Sat 07:00 PM  84.2°F  80°F  5 mph NW  6 mph  15 mph  0.00"  22%  38%  39°F  51°F  29.92"
Sat 06:00 PM  86.9°F  83°F  9 mph W  6 mph  15 mph  0.00"  23%  32%  43°F  49°F  29.92"
Sat 05:00 PM  88.9°F  86°F  11 mph W  7 mph  17 mph  0.00"  23%  29%  46°F  49°F  29.91"
Sat 04:00 PM  91.1°F  87°F  7 mph NW  7 mph  17 mph  0.00"  24%  27%  48°F  48°F  29.91"
Sat 03:00 PM  92.4°F  87°F  8 mph W  7 mph  16 mph  0.00"  21%  27%  46°F  48°F  29.92"
Sat 02:00 PM  94.2°F  86°F  6 mph SW  6 mph  12 mph  0.00"  15%  29%  37°F  49°F  29.93"
Sat 01:00 PM  91.9°F  84°F  6 mph W  6 mph  13 mph  0.00"  20%  33%  43°F  51°F  29.93"
Sat 12:00 PM  89.4°F  82°F  1 mph SW  5 mph  8 mph  0.00"  19%  36%  40°F  52°F  29.95"
Sat 11:00 AM  86.3°F  80°F  3 mph SW  3 mph  9 mph  0.00"  26%  43%  47°F  54°F  29.96"
Sat 10:00 AM  83.4°F  76°F  3 mph SW  2 mph  5 mph  0.00"  34%  52%  51°F  56°F  29.96"
Sat 09:00 AM  78.0°F  71°F  3 mph SW  2 mph  5 mph  0.00"  45%  63%  54°F  58°F  29.96"
Sat 08:00 AM  71.1°F  68°F  2 mph SW  2 mph  4 mph  0.00"  61%  71%  57°F  58°F  29.96"
Sat 07:00 AM  66.8°F  66°F  1 mph SW  1 mph  3 mph  0.00"  70%  75%  56°F  57°F  29.95"
Sat 06:00 AM  65.1°F  65°F  2 mph SW  2 mph  5 mph  0.00"  73%  76%  56°F  57°F  29.93"
Sat 05:00 AM  66.9°F  66°F  2 mph SW  1 mph  4 mph  0.00"  69%  74%  56°F  57°F  29.92"
Sat 04:00 AM  65.5°F  66°F  2 mph SW  2 mph  5 mph  0.00"  73%  72%  56°F  57°F  29.92"
Sat 03:00 AM  66.2°F  67°F  3 mph SW  2 mph  7 mph  0.00"  71%  72%  56°F  57°F  29.92"
Sat 02:00 AM  66.7°F  67°F  calm  2 mph  8 mph  0.00"  71%  70%  57°F  57°F  29.93"
Sat 01:00 AM  67.2°F  68°F  5 mph SW  2 mph  8 mph  0.00"  70%  67%  57°F  56°F  29.93"
Sat 12:00 AM  68.5°F  69°F  6 mph SW  3 mph  9 mph  0.00"  65%  65%  56°F  56°F  29.92"
Fri 11:00 PM  70.1°F  70°F  2 mph SW  3 mph  7 mph  0.00"  62%  62%  56°F  56°F  29.90"
Fri 10:00 PM  72.3°F  72°F  calm  3 mph  4 mph  0.00"  58%  58%  56°F  55°F  29.89"
Fri 09:00 PM  74.8°F  73°F  1 mph SW  4 mph  8 mph  0.00"  52%  53%  56°F  55°F  29.86"
Fri 08:00 PM  77.3°F  76°F  4 mph SW  5 mph  10 mph  0.00"  47%  47%  55°F  53°F  29.83"
Fri 07:00 PM  80.4°F  79°F  5 mph SW  6 mph  11 mph  0.00"  40%  39%  53°F  52°F  29.82"

  1. Current weather data. No green row appears if the current weather data is also the high or low for the current day.
  2. High temperature for the current day.
  3. Low temperature for the current day.

The Riverside (Orangecrest), California weather pages are a service of WeatherCurrents.
Copyright ©2019  WeatherCurrents. All rights reserved. - Submit questions and comments - Privacy Policy

This page automatically refreshes every 10 minutes.